Time;durP1;ratioP1;P1;durP2;ratioP2;P2;SDS_P1;SDS_P2;PMS_P1;PMS_P2;Temp;Humidity;BMP_temperature;BMP_pressure;BME280_temperature;BME280_humidity;BME280_pressure;Samples;Min_cycle;Max_cycle;Signal;HPM_P1;HPM_P2
2023/07/15 00:00:18;;;;;;;4.88;3.90;;;;;;;;;;5013438;28;20225;-89
2023/07/15 00:02:46;;;;;;;5.80;4.05;;;;;;;;;;5014056;28;20615;-87
2023/07/15 00:05:17;;;;;;;4.25;3.95;;;;;;;;;;5013512;28;20573;-87
2023/07/15 00:07:46;;;;;;;5.85;3.10;;;;;;;;;;5013764;28;20203;-88
2023/07/15 00:10:13;;;;;;;5.38;4.88;;;;;;;;;;5013465;28;20193;-88
2023/07/15 00:12:40;;;;;;;4.45;4.15;;;;;;;;;;5013175;28;20668;-88
2023/07/15 00:15:09;;;;;;;7.53;4.15;;;;;;;;;;5013736;28;20282;-87
2023/07/15 00:17:36;;;;;;;7.97;4.35;;;;;;;;;;5013577;28;20281;-87
2023/07/15 00:20:04;;;;;;;5.40;4.93;;;;;;;;;;5013961;28;20283;-88
2023/07/15 00:22:31;;;;;;;5.07;4.53;;;;;;;;;;5013425;28;20272;-87
2023/07/15 00:24:59;;;;;;;7.53;4.30;;;;;;;;;;5013054;28;20201;-87
2023/07/15 00:27:26;;;;;;;5.97;4.50;;;;;;;;;;5013723;28;20649;-88
2023/07/15 00:29:55;;;;;;;5.53;5.03;;;;;;;;;;5013164;28;20200;-87
2023/07/15 00:32:22;;;;;;;5.55;4.32;;;;;;;;;;5013943;28;20263;-88
2023/07/15 00:34:49;;;;;;;4.40;4.00;;;;;;;;;;5015406;28;20236;-86
2023/07/15 00:37:16;;;;;;;6.63;4.60;;;;;;;;;;5016636;28;20205;-87
2023/07/15 00:39:43;;;;;;;5.68;4.60;;;;;;;;;;5014428;28;20205;-88
2023/07/15 00:42:18;;;;;;;5.07;4.25;;;;;;;;;;5014727;28;20201;-87
2023/07/15 00:44:44;;;;;;;4.93;4.55;;;;;;;;;;5014380;28;20192;-87
2023/07/15 00:47:21;;;;;;;5.03;4.47;;;;;;;;;;5013523;28;20650;-87
2023/07/15 00:49:48;;;;;;;4.72;4.25;;;;;;;;;;5012758;28;20201;-88
2023/07/15 00:52:16;;;;;;;5.22;4.22;;;;;;;;;;5013027;28;20227;-87
2023/07/15 00:54:46;;;;;;;6.82;5.13;;;;;;;;;;5012724;28;20240;-88
2023/07/15 00:57:15;;;;;;;5.10;4.70;;;;;;;;;;5013418;28;20648;-86
2023/07/15 00:59:42;;;;;;;6.95;4.40;;;;;;;;;;5013055;28;20209;-88
2023/07/15 01:02:09;;;;;;;5.05;4.55;;;;;;;;;;5011659;28;20304;-87
2023/07/15 01:04:38;;;;;;;5.30;4.78;;;;;;;;;;5012883;28;20262;-89
2023/07/15 01:07:05;;;;;;;4.57;4.18;;;;;;;;;;5013292;28;20200;-87
2023/07/15 01:09:33;;;;;;;22.77;13.35;;;;;;;;;;5014538;28;20283;-88
2023/07/15 01:12:01;;;;;;;6.72;5.47;;;;;;;;;;5015227;28;20271;-87
2023/07/15 01:14:30;;;;;;;5.47;4.72;;;;;;;;;;5018760;28;20255;-89
2023/07/15 01:16:57;;;;;;;5.10;4.63;;;;;;;;;;5021527;28;20295;-89
2023/07/15 01:19:24;;;;;;;5.20;4.53;;;;;;;;;;5027213;28;20212;-88
2023/07/15 01:21:53;;;;;;;4.63;4.15;;;;;;;;;;5027290;28;20255;-86
2023/07/15 01:24:22;;;;;;;10.00;4.60;;;;;;;;;;5030737;28;20228;-86
2023/07/15 01:26:50;;;;;;;4.60;4.25;;;;;;;;;;5025361;28;20308;-87
2023/07/15 01:29:17;;;;;;;7.57;4.85;;;;;;;;;;5020314;28;20300;-86
2023/07/15 01:31:44;;;;;;;4.63;4.20;;;;;;;;;;5018683;28;20216;-87
2023/07/15 01:34:10;;;;;;;5.20;4.70;;;;;;;;;;5017551;28;20208;-88
2023/07/15 01:36:38;;;;;;;4.72;4.32;;;;;;;;;;5015858;28;20220;-88
2023/07/15 01:39:07;;;;;;;5.28;4.72;;;;;;;;;;5015006;28;20213;-88
2023/07/15 01:41:39;;;;;;;5.05;4.55;;;;;;;;;;5013071;28;20256;-87
2023/07/15 01:44:06;;;;;;;5.47;4.85;;;;;;;;;;5013266;28;20211;-87
2023/07/15 01:46:34;;;;;;;5.03;4.57;;;;;;;;;;5008991;28;20213;-89
2023/07/15 01:49:13;;;;;;;8.10;5.35;;;;;;;;;;4993309;28;20245;-88
2023/07/15 01:51:39;;;;;;;4.68;4.20;;;;;;;;;;4993915;28;20233;-87
2023/07/15 01:54:06;;;;;;;10.10;4.88;;;;;;;;;;4993832;28;20406;-89
2023/07/15 01:56:33;;;;;;;8.27;5.50;;;;;;;;;;4992979;28;20284;-88
2023/07/15 01:59:01;;;;;;;5.35;4.57;;;;;;;;;;4992898;28;20225;-88
2023/07/15 02:01:28;;;;;;;5.00;4.55;;;;;;;;;;4993289;28;20276;-88
2023/07/15 02:03:55;;;;;;;6.30;4.65;;;;;;;;;;4993519;28;20268;-88
2023/07/15 02:06:23;;;;;;;5.40;4.80;;;;;;;;;;4993624;28;20221;-88
2023/07/15 02:08:50;;;;;;;4.10;3.88;;;;;;;;;;4993613;28;20295;-89
2023/07/15 02:11:17;;;;;;;5.57;4.60;;;;;;;;;;4992678;28;20205;-87
2023/07/15 02:13:44;;;;;;;4.07;3.78;;;;;;;;;;4992275;28;20205;-87
2023/07/15 02:16:12;;;;;;;77.32;36.55;;;;;;;;;;4993070;28;20267;-86
2023/07/15 02:18:40;;;;;;;8.98;6.05;;;;;;;;;;4994348;28;20280;-87
2023/07/15 02:21:09;;;;;;;9.18;5.00;;;;;;;;;;4999525;28;20225;-88
2023/07/15 02:23:36;;;;;;;6.10;4.55;;;;;;;;;;5011971;28;20249;-88
2023/07/15 02:26:03;;;;;;;6.13;4.72;;;;;;;;;;4998123;28;20601;-87
2023/07/15 02:28:30;;;;;;;6.07;5.00;;;;;;;;;;4992875;28;20265;-88
2023/07/15 02:30:56;;;;;;;5.63;5.07;;;;;;;;;;5008447;28;20193;-87
2023/07/15 02:33:25;;;;;;;5.78;4.95;;;;;;;;;;5011396;28;20228;-89
2023/07/15 02:35:52;;;;;;;4.68;4.28;;;;;;;;;;5011531;28;20383;-87
2023/07/15 02:38:19;;;;;;;6.03;5.10;;;;;;;;;;5010507;28;20263;-87
2023/07/15 02:40:49;;;;;;;7.82;5.15;;;;;;;;;;5010883;28;20687;-87
2023/07/15 02:43:15;;;;;;;7.47;5.20;;;;;;;;;;5011137;28;20530;-87
2023/07/15 02:45:42;;;;;;;5.25;4.63;;;;;;;;;;5006781;28;20209;-87
2023/07/15 02:48:09;;;;;;;7.05;5.32;;;;;;;;;;5010024;28;20208;-87
2023/07/15 02:50:38;;;;;;;5.32;4.40;;;;;;;;;;5000883;28;20228;-87
2023/07/15 02:53:04;;;;;;;6.78;5.13;;;;;;;;;;5002891;28;20287;-87
2023/07/15 02:55:31;;;;;;;5.30;4.68;;;;;;;;;;5021241;28;20675;-87
2023/07/15 02:57:58;;;;;;;6.53;5.28;;;;;;;;;;5004447;28;20687;-88
2023/07/15 03:00:26;;;;;;;6.03;5.00;;;;;;;;;;5008302;28;20246;-87
2023/07/15 03:02:53;;;;;;;13.48;5.75;;;;;;;;;;5010355;28;20215;-88
2023/07/15 03:05:21;;;;;;;7.50;4.82;;;;;;;;;;5010802;28;20227;-87
2023/07/15 03:07:59;;;;;;;5.75;5.25;;;;;;;;;;5010284;28;20201;-88
2023/07/15 03:10:26;;;;;;;6.78;5.50;;;;;;;;;;5008554;28;20678;-86
2023/07/15 03:12:53;;;;;;;6.50;5.07;;;;;;;;;;5010687;28;20426;-86
2023/07/15 03:15:20;;;;;;;5.38;4.97;;;;;;;;;;5007398;28;20208;-88
2023/07/15 03:17:47;;;;;;;11.55;4.95;;;;;;;;;;5011215;28;20232;-87
2023/07/15 03:20:19;;;;;;;12.95;6.00;;;;;;;;;;5009307;28;20208;-88
2023/07/15 03:22:45;;;;;;;7.50;4.85;;;;;;;;;;5010623;28;20239;-89
2023/07/15 03:25:14;;;;;;;6.05;5.20;;;;;;;;;;5010870;28;20200;-88
2023/07/15 03:27:41;;;;;;;9.80;4.97;;;;;;;;;;5011230;28;20216;-88
2023/07/15 03:30:09;;;;;;;7.40;5.47;;;;;;;;;;5021361;28;20234;-87
2023/07/15 03:32:36;;;;;;;10.60;5.55;;;;;;;;;;5032596;28;20200;-87
2023/07/15 03:35:03;;;;;;;9.65;5.43;;;;;;;;;;5034585;28;20254;-88
2023/07/15 03:37:31;;;;;;;12.43;5.38;;;;;;;;;;5033340;28;20275;-88
2023/07/15 03:39:58;;;;;;;5.78;5.20;;;;;;;;;;5033775;28;20224;-88
2023/07/15 03:42:28;;;;;;;8.50;4.80;;;;;;;;;;5033453;28;20231;-89
2023/07/15 03:44:55;;;;;;;6.25;5.03;;;;;;;;;;5033114;28;20192;-89
2023/07/15 03:47:22;;;;;;;9.02;5.43;;;;;;;;;;5033963;28;20258;-87
2023/07/15 03:49:49;;;;;;;4.55;3.85;;;;;;;;;;5033559;28;20192;-88
2023/07/15 03:52:16;;;;;;;6.18;4.30;;;;;;;;;;5033446;28;20362;-87
2023/07/15 03:54:43;;;;;;;6.85;4.63;;;;;;;;;;5033209;28;20239;-88
2023/07/15 03:57:10;;;;;;;5.07;4.20;;;;;;;;;;5033390;28;20196;-88
2023/07/15 03:59:38;;;;;;;8.73;4.65;;;;;;;;;;5013050;28;20204;-87
2023/07/15 04:02:06;;;;;;;5.20;4.68;;;;;;;;;;5013922;28;20232;-88
2023/07/15 04:04:33;;;;;;;6.13;5.32;;;;;;;;;;5015584;28;20203;-88
2023/07/15 04:07:05;;;;;;;6.20;4.80;;;;;;;;;;5003437;28;20213;-87
2023/07/15 04:09:32;;;;;;;4.30;3.90;;;;;;;;;;5000665;28;20228;-88
2023/07/15 04:11:59;;;;;;;5.32;4.68;;;;;;;;;;5010559;28;20228;-87
2023/07/15 04:14:26;;;;;;;5.22;3.72;;;;;;;;;;5012898;28;20211;-86
2023/07/15 04:16:55;;;;;;;4.10;3.90;;;;;;;;;;5013771;28;20205;-87
2023/07/15 04:19:22;;;;;;;5.50;4.22;;;;;;;;;;5016614;28;20296;-87
2023/07/15 04:21:48;;;;;;;4.82;4.20;;;;;;;;;;5013213;28;20224;-88
2023/07/15 04:24:18;;;;;;;4.85;4.38;;;;;;;;;;5012957;28;20226;-86
2023/07/15 04:29:27;;;;;;;4.80;4.40;;;;;;;;;;5000494;28;20215;-85
2023/07/15 04:31:57;;;;;;;4.55;4.15;;;;;;;;;;5012933;28;20310;-86
2023/07/15 04:34:30;;;;;;;6.20;4.50;;;;;;;;;;5011523;28;20216;-87
2023/07/15 04:36:57;;;;;;;4.32;4.13;;;;;;;;;;5012882;28;20279;-90
2023/07/15 04:39:27;;;;;;;5.00;4.53;;;;;;;;;;5013355;28;20230;-89
2023/07/15 04:41:54;;;;;;;4.65;4.20;;;;;;;;;;5013823;28;20231;-90
2023/07/15 04:44:21;;;;;;;6.18;4.53;;;;;;;;;;5001199;28;20223;-89
2023/07/15 04:46:48;;;;;;;5.28;4.63;;;;;;;;;;5014296;28;20834;-90
2023/07/15 04:49:17;;;;;;;5.05;4.55;;;;;;;;;;5003166;28;20295;-90
2023/07/15 04:51:44;;;;;;;6.45;4.80;;;;;;;;;;4994163;28;20212;-90
2023/07/15 04:54:11;;;;;;;7.03;4.15;;;;;;;;;;4994761;28;20311;-89
2023/07/15 04:56:39;;;;;;;6.47;4.45;;;;;;;;;;4995724;28;20622;-89
2023/07/15 04:59:07;;;;;;;4.78;4.32;;;;;;;;;;4994353;28;20197;-89
2023/07/15 05:01:34;;;;;;;4.32;4.03;;;;;;;;;;5003689;28;20687;-89
2023/07/15 05:04:02;;;;;;;5.90;4.80;;;;;;;;;;5007861;28;20225;-90
2023/07/15 05:06:33;;;;;;;4.07;3.78;;;;;;;;;;4996465;28;20205;-87
2023/07/15 05:09:00;;;;;;;4.90;4.55;;;;;;;;;;5004035;28;20315;-89
2023/07/15 05:11:30;;;;;;;6.80;4.57;;;;;;;;;;5006389;28;20255;-87
2023/07/15 05:13:56;;;;;;;5.35;4.90;;;;;;;;;;5004501;28;20291;-88
2023/07/15 05:16:26;;;;;;;4.97;4.57;;;;;;;;;;5002534;28;20208;-87
2023/07/15 05:18:53;;;;;;;4.43;3.97;;;;;;;;;;5012745;28;20686;-86
2023/07/15 05:21:23;;;;;;;5.43;4.88;;;;;;;;;;5012980;28;20196;-87
2023/07/15 05:23:52;;;;;;;4.82;4.50;;;;;;;;;;5013327;28;20657;-86
2023/07/15 05:26:19;;;;;;;4.78;4.38;;;;;;;;;;5021944;28;20237;-88
2023/07/15 05:28:48;;;;;;;5.15;4.70;;;;;;;;;;5012209;28;20200;-86
2023/07/15 05:31:15;;;;;;;5.32;4.93;;;;;;;;;;5012002;28;20631;-86
2023/07/15 05:33:44;;;;;;;6.00;5.43;;;;;;;;;;5013169;28;20204;-88
2023/07/15 05:36:11;;;;;;;6.97;5.53;;;;;;;;;;5013630;28;20192;-89
2023/07/15 05:38:42;;;;;;;6.55;5.32;;;;;;;;;;5013386;28;20210;-89
2023/07/15 05:41:13;;;;;;;5.88;5.40;;;;;;;;;;5019682;28;20283;-87
2023/07/15 05:43:40;;;;;;;6.03;4.88;;;;;;;;;;5013440;28;20716;-84
2023/07/15 05:46:07;;;;;;;7.00;5.50;;;;;;;;;;5019821;28;20216;-86
2023/07/15 05:48:34;;;;;;;6.85;5.40;;;;;;;;;;5014230;28;20255;-86
2023/07/15 05:51:01;;;;;;;6.85;5.50;;;;;;;;;;5011379;28;20201;-88
2023/07/15 05:53:28;;;;;;;5.72;5.25;;;;;;;;;;5013083;28;20624;-88
2023/07/15 05:55:55;;;;;;;7.72;5.88;;;;;;;;;;5011407;28;20236;-89
2023/07/15 05:58:27;;;;;;;5.75;5.00;;;;;;;;;;5018412;28;20231;-89
2023/07/15 06:00:55;;;;;;;4.90;4.50;;;;;;;;;;5017314;28;20660;-86
2023/07/15 06:03:21;;;;;;;5.43;5.00;;;;;;;;;;5012203;28;20290;-90
2023/07/15 06:05:48;;;;;;;8.40;5.35;;;;;;;;;;5012985;28;20753;-88
2023/07/15 06:08:18;;;;;;;5.93;5.15;;;;;;;;;;5013307;28;20200;-89
2023/07/15 06:10:45;;;;;;;6.03;5.53;;;;;;;;;;5013259;28;20200;-90
2023/07/15 06:13:12;;;;;;;6.78;6.20;;;;;;;;;;5012603;28;20708;-88
2023/07/15 06:15:42;;;;;;;6.43;5.93;;;;;;;;;;5013334;28;20626;-88
2023/07/15 06:18:09;;;;;;;5.45;4.95;;;;;;;;;;5013379;28;20188;-88
2023/07/15 06:20:39;;;;;;;6.22;5.63;;;;;;;;;;5013675;28;20685;-89
2023/07/15 06:23:07;;;;;;;8.77;5.40;;;;;;;;;;5013546;28;20251;-87
2023/07/15 06:25:34;;;;;;;5.60;5.10;;;;;;;;;;5017999;28;20204;-90
2023/07/15 06:28:01;;;;;;;6.05;5.63;;;;;;;;;;5010441;28;20310;-86
2023/07/15 06:30:28;;;;;;;8.32;5.68;;;;;;;;;;5011929;28;20219;-88
2023/07/15 06:32:56;;;;;;;5.13;4.72;;;;;;;;;;5010865;28;20239;-86
2023/07/15 06:35:23;;;;;;;6.93;5.75;;;;;;;;;;5010036;28;20269;-87
2023/07/15 06:37:50;;;;;;;5.85;5.32;;;;;;;;;;5010793;28;20226;-88
2023/07/15 06:40:17;;;;;;;5.72;5.28;;;;;;;;;;4998055;28;20205;-87
2023/07/15 06:42:45;;;;;;;5.30;5.07;;;;;;;;;;5008814;28;20224;-87
2023/07/15 06:45:12;;;;;;;6.13;5.32;;;;;;;;;;5006015;28;20669;-87
2023/07/15 06:47:42;;;;;;;5.70;5.20;;;;;;;;;;5006989;28;20201;-86
2023/07/15 06:50:11;;;;;;;8.52;5.78;;;;;;;;;;5019555;28;20280;-88
2023/07/15 06:52:47;;;;;;;6.10;5.50;;;;;;;;;;5017476;28;20542;-89
2023/07/15 06:55:14;;;;;;;6.22;5.63;;;;;;;;;;5012004;28;20274;-87
2023/07/15 06:57:42;;;;;;;6.35;5.85;;;;;;;;;;5011838;28;20208;-86
2023/07/15 07:00:09;;;;;;;6.50;5.65;;;;;;;;;;5010689;28;20208;-89
2023/07/15 07:02:38;;;;;;;6.13;5.63;;;;;;;;;;5012605;28;20224;-90
2023/07/15 07:05:07;;;;;;;5.60;5.13;;;;;;;;;;5020461;28;20222;-90
2023/07/15 07:07:35;;;;;;;5.93;5.43;;;;;;;;;;5016979;28;20227;-89
2023/07/15 07:10:02;;;;;;;6.55;5.85;;;;;;;;;;5012433;28;20208;-86
2023/07/15 07:12:29;;;;;;;5.95;5.35;;;;;;;;;;5016582;28;20224;-90
2023/07/15 07:14:57;;;;;;;6.97;6.10;;;;;;;;;;5016777;28;20228;-90
2023/07/15 07:17:33;;;;;;;6.93;5.68;;;;;;;;;;5009609;28;20244;-89
2023/07/15 07:20:04;;;;;;;5.03;4.65;;;;;;;;;;5010954;28;20230;-86
2023/07/15 07:22:31;;;;;;;5.93;5.43;;;;;;;;;;5009747;28;20304;-90
2023/07/15 07:25:02;;;;;;;6.30;5.80;;;;;;;;;;5010216;28;20239;-90
2023/07/15 07:27:29;;;;;;;5.85;5.35;;;;;;;;;;5011275;28;20219;-89
2023/07/15 07:29:59;;;;;;;5.95;5.45;;;;;;;;;;5012969;28;20224;-88
2023/07/15 07:32:26;;;;;;;5.97;5.47;;;;;;;;;;5016593;28;20216;-86
2023/07/15 07:34:54;;;;;;;6.13;5.72;;;;;;;;;;5008933;28;20318;-90
2023/07/15 07:37:30;;;;;;;6.15;5.57;;;;;;;;;;5008419;28;20585;-89
2023/07/15 07:39:57;;;;;;;6.15;5.65;;;;;;;;;;4996771;28;20254;-87
2023/07/15 07:42:25;;;;;;;6.32;5.82;;;;;;;;;;4995417;28;20235;-87
2023/07/15 07:44:52;;;;;;;6.75;5.55;;;;;;;;;;4997096;28;20237;-87
2023/07/15 07:47:20;;;;;;;7.45;6.53;;;;;;;;;;5008789;28;20252;-86
2023/07/15 07:49:47;;;;;;;7.75;5.80;;;;;;;;;;5003255;28;20775;-90
2023/07/15 07:52:13;;;;;;;8.18;6.25;;;;;;;;;;5004674;28;20220;-89
2023/07/15 07:54:40;;;;;;;6.53;5.68;;;;;;;;;;4997212;28;20660;-88
2023/07/15 07:57:08;;;;;;;7.20;5.47;;;;;;;;;;5008838;28;20652;-89
2023/07/15 07:59:36;;;;;;;6.53;5.93;;;;;;;;;;5008807;28;20322;-86
2023/07/15 08:02:04;;;;;;;6.40;5.78;;;;;;;;;;5010875;28;20635;-87
2023/07/15 08:04:31;;;;;;;7.07;5.50;;;;;;;;;;5009371;28;20220;-88
2023/07/15 08:06:58;;;;;;;6.22;5.70;;;;;;;;;;5011463;28;20220;-87
2023/07/15 08:09:26;;;;;;;5.53;5.22;;;;;;;;;;5009763;28;20815;-88
2023/07/15 08:11:53;;;;;;;8.10;5.68;;;;;;;;;;5008915;28;20232;-87
2023/07/15 08:14:23;;;;;;;6.00;5.47;;;;;;;;;;5009052;28;20212;-86
2023/07/15 08:16:53;;;;;;;6.60;5.75;;;;;;;;;;5009298;28;20228;-87
2023/07/15 08:19:20;;;;;;;6.65;6.05;;;;;;;;;;5007237;28;20265;-86
2023/07/15 08:21:47;;;;;;;6.32;5.60;;;;;;;;;;5017676;28;20251;-86
2023/07/15 08:24:14;;;;;;;7.40;6.70;;;;;;;;;;5002067;28;20259;-87
2023/07/15 08:26:41;;;;;;;7.75;5.70;;;;;;;;;;5000365;28;20650;-87
2023/07/15 08:29:08;;;;;;;6.20;5.70;;;;;;;;;;5013722;28;20909;-89
2023/07/15 08:31:36;;;;;;;8.10;5.95;;;;;;;;;;4994161;28;20233;-88
2023/07/15 08:34:05;;;;;;;6.43;5.90;;;;;;;;;;4994068;28;20252;-88
2023/07/15 08:36:31;;;;;;;6.50;6.00;;;;;;;;;;4993349;28;20605;-88
2023/07/15 08:38:58;;;;;;;6.63;6.00;;;;;;;;;;4993781;28;20736;-90
2023/07/15 08:41:28;;;;;;;10.57;5.78;;;;;;;;;;4992331;28;20216;-88
2023/07/15 08:43:55;;;;;;;6.35;5.80;;;;;;;;;;4993730;28;20247;-88
2023/07/15 08:46:25;;;;;;;6.25;5.75;;;;;;;;;;4993220;28;20221;-91
2023/07/15 08:48:52;;;;;;;6.43;5.32;;;;;;;;;;4993991;28;20320;-86
2023/07/15 08:51:22;;;;;;;7.80;6.50;;;;;;;;;;5007389;28;20605;-88
2023/07/15 08:53:48;;;;;;;6.82;5.75;;;;;;;;;;5014548;28;20606;-86
2023/07/15 08:56:16;;;;;;;6.22;5.65;;;;;;;;;;5012747;28;20692;-87
2023/07/15 08:58:43;;;;;;;8.75;6.38;;;;;;;;;;5012602;28;20220;-85
2023/07/15 09:01:10;;;;;;;8.70;5.90;;;;;;;;;;5013663;28;20220;-88
2023/07/15 09:03:37;;;;;;;6.70;6.10;;;;;;;;;;5008176;28;20322;-87
2023/07/15 09:06:04;;;;;;;7.18;6.07;;;;;;;;;;5014687;28;20228;-87
2023/07/15 09:08:34;;;;;;;6.60;6.10;;;;;;;;;;5019575;28;20240;-85
2023/07/15 09:11:02;;;;;;;6.95;6.18;;;;;;;;;;5026590;28;20290;-86
2023/07/15 09:13:32;;;;;;;8.60;5.50;;;;;;;;;;5026514;28;20220;-85
2023/07/15 09:15:59;;;;;;;7.82;5.80;;;;;;;;;;5019498;28;20251;-86
2023/07/15 09:18:27;;;;;;;9.23;5.80;;;;;;;;;;5020935;28;20240;-87
2023/07/15 09:21:07;;;;;;;8.88;5.63;;;;;;;;;;5018589;28;20251;-85
2023/07/15 09:23:37;;;;;;;6.60;5.93;;;;;;;;;;5013428;28;20267;-84
2023/07/15 09:26:05;;;;;;;10.85;6.25;;;;;;;;;;5004955;28;20484;-85
2023/07/15 09:28:32;;;;;;;6.45;5.93;;;;;;;;;;4990097;28;20241;-85
2023/07/15 09:31:00;;;;;;;7.10;5.68;;;;;;;;;;4993110;28;20225;-84
2023/07/15 09:33:31;;;;;;;6.63;6.13;;;;;;;;;;4991704;28;20286;-86
2023/07/15 09:35:57;;;;;;;6.32;5.22;;;;;;;;;;4994638;28;20233;-85
2023/07/15 09:38:25;;;;;;;6.65;6.00;;;;;;;;;;4995233;28;20233;-86
2023/07/15 09:40:53;;;;;;;6.90;6.15;;;;;;;;;;4992516;28;20260;-85
2023/07/15 09:43:20;;;;;;;7.63;6.10;;;;;;;;;;4992663;28;20237;-84
2023/07/15 09:45:47;;;;;;;6.07;5.60;;;;;;;;;;4991591;28;20220;-85
2023/07/15 09:48:17;;;;;;;7.72;6.82;;;;;;;;;;4990529;28;20212;-85
2023/07/15 09:50:44;;;;;;;6.45;5.95;;;;;;;;;;4990942;28;20212;-87
2023/07/15 09:53:11;;;;;;;10.93;6.60;;;;;;;;;;4991918;28;20391;-86
2023/07/15 09:55:39;;;;;;;7.78;6.38;;;;;;;;;;4990458;28;20252;-90
2023/07/15 09:58:10;;;;;;;8.50;6.40;;;;;;;;;;5007184;28;20251;-88
2023/07/15 10:00:40;;;;;;;7.47;6.70;;;;;;;;;;5010742;28;20723;-86
2023/07/15 10:03:10;;;;;;;7.00;6.40;;;;;;;;;;5012981;28;20280;-85
2023/07/15 10:05:42;;;;;;;7.70;6.75;;;;;;;;;;5017792;28;20732;-88
2023/07/15 10:08:11;;;;;;;7.72;6.90;;;;;;;;;;5023722;28;20212;-89
2023/07/15 10:10:37;;;;;;;9.73;6.45;;;;;;;;;;5020950;28;20212;-86
2023/07/15 10:13:04;;;;;;;6.97;6.25;;;;;;;;;;5024295;28;20224;-85
2023/07/15 10:15:33;;;;;;;12.45;6.60;;;;;;;;;;5022912;28;20220;-87
2023/07/15 10:18:11;;;;;;;6.60;6.00;;;;;;;;;;5020757;28;20316;-87
2023/07/15 10:20:41;;;;;;;6.22;5.63;;;;;;;;;;5021875;28;20235;-86
2023/07/15 10:23:12;;;;;;;8.18;7.25;;;;;;;;;;5021333;28;20251;-86
2023/07/15 10:25:42;;;;;;;13.43;9.48;;;;;;;;;;5017351;28;20246;-85
2023/07/15 10:28:13;;;;;;;6.97;6.30;;;;;;;;;;5016069;28;20228;-86
2023/07/15 10:31:01;;;;;;;13.65;7.38;;;;;;;;;;5013217;28;20360;-86
2023/07/15 10:33:29;;;;;;;11.43;7.35;;;;;;;;;;5010057;28;20339;-86
2023/07/15 10:35:56;;;;;;;6.78;6.15;;;;;;;;;;5011342;28;20354;-87
2023/07/15 10:38:26;;;;;;;9.65;7.03;;;;;;;;;;5010940;28;20220;-88
2023/07/15 10:40:56;;;;;;;9.07;6.47;;;;;;;;;;5010420;28;20243;-88
2023/07/15 10:43:24;;;;;;;7.40;6.63;;;;;;;;;;5009563;28;20232;-87
2023/07/15 10:45:57;;;;;;;8.07;6.80;;;;;;;;;;5010454;28;20243;-87
2023/07/15 10:48:23;;;;;;;7.30;6.40;;;;;;;;;;5010533;28;20235;-87
2023/07/15 10:50:53;;;;;;;7.20;6.60;;;;;;;;;;5010233;28;20308;-87
2023/07/15 10:53:21;;;;;;;7.32;6.68;;;;;;;;;;5010396;28;20285;-87
2023/07/15 10:55:55;;;;;;;6.68;6.00;;;;;;;;;;5010329;28;20309;-87
2023/07/15 10:58:22;;;;;;;7.85;7.03;;;;;;;;;;5010973;28;20255;-88
2023/07/15 11:00:49;;;;;;;8.02;7.13;;;;;;;;;;5011223;28;20657;-88
2023/07/15 11:03:18;;;;;;;9.10;6.43;;;;;;;;;;5010686;28;20288;-87
2023/07/15 11:05:44;;;;;;;7.55;6.22;;;;;;;;;;5006787;28;20224;-88
2023/07/15 11:08:11;;;;;;;7.97;5.78;;;;;;;;;;4998975;28;20233;-86
2023/07/15 11:10:38;;;;;;;7.65;6.93;;;;;;;;;;4996777;28;20596;-87
2023/07/15 11:13:11;;;;;;;8.77;6.30;;;;;;;;;;5009514;28;20246;-88
2023/07/15 11:15:38;;;;;;;10.43;6.63;;;;;;;;;;5010130;28;21635;-87
2023/07/15 11:18:05;;;;;;;9.13;6.15;;;;;;;;;;5010020;28;20236;-86
2023/07/15 11:20:33;;;;;;;7.47;6.32;;;;;;;;;;5013284;28;20224;-86
2023/07/15 11:23:00;;;;;;;6.95;6.30;;;;;;;;;;5009967;28;20642;-87
2023/07/15 11:25:29;;;;;;;10.32;6.15;;;;;;;;;;5009976;28;20240;-86
2023/07/15 11:27:59;;;;;;;8.85;7.00;;;;;;;;;;5010357;28;20709;-88
2023/07/15 11:30:26;;;;;;;13.35;6.55;;;;;;;;;;5010776;28;20229;-88
2023/07/15 11:32:54;;;;;;;8.02;5.63;;;;;;;;;;5010509;28;20319;-87
2023/07/15 11:35:22;;;;;;;6.75;6.15;;;;;;;;;;5010099;28;20229;-87
2023/07/15 11:37:51;;;;;;;10.73;6.57;;;;;;;;;;5009949;28;20229;-87
2023/07/15 11:40:19;;;;;;;6.40;5.80;;;;;;;;;;5010328;28;20336;-87
2023/07/15 11:42:46;;;;;;;10.10;7.00;;;;;;;;;;5009702;28;20330;-87
2023/07/15 11:45:13;;;;;;;7.18;6.45;;;;;;;;;;5010026;28;20240;-88
2023/07/15 11:47:43;;;;;;;8.15;7.22;;;;;;;;;;5010836;28;20224;-88
2023/07/15 11:50:12;;;;;;;8.38;6.72;;;;;;;;;;5010402;28;20227;-87
2023/07/15 11:52:48;;;;;;;8.60;6.53;;;;;;;;;;5009918;28;20235;-86
2023/07/15 11:55:25;;;;;;;11.48;6.78;;;;;;;;;;5013809;28;20274;-87
2023/07/15 11:57:56;;;;;;;7.75;5.90;;;;;;;;;;5013956;28;20267;-86
2023/07/15 12:00:30;;;;;;;7.35;6.45;;;;;;;;;;5013731;28;20239;-87
2023/07/15 12:02:57;;;;;;;8.13;6.10;;;;;;;;;;5014209;28;20227;-86
2023/07/15 12:05:24;;;;;;;7.22;6.53;;;;;;;;;;5013920;28;20693;-84
2023/07/15 12:07:51;;;;;;;6.32;5.72;;;;;;;;;;5013489;28;20225;-85
2023/07/15 12:10:19;;;;;;;8.95;6.22;;;;;;;;;;5013269;28;20653;-85
2023/07/15 12:12:46;;;;;;;5.88;5.28;;;;;;;;;;5014011;28;20225;-87
2023/07/15 12:15:16;;;;;;;6.60;5.75;;;;;;;;;;5017555;28;20227;-87
2023/07/15 12:17:43;;;;;;;7.03;5.28;;;;;;;;;;5010764;28;20216;-86
2023/07/15 12:20:10;;;;;;;11.50;6.57;;;;;;;;;;5012950;28;20284;-86
2023/07/15 12:22:37;;;;;;;6.47;5.88;;;;;;;;;;5012783;28;20228;-86
2023/07/15 12:25:04;;;;;;;7.47;6.82;;;;;;;;;;5014228;28;20232;-87
2023/07/15 12:27:33;;;;;;;13.43;6.50;;;;;;;;;;5012567;28;20579;-86
2023/07/15 12:30:00;;;;;;;6.97;6.28;;;;;;;;;;5012885;28;20581;-87
2023/07/15 12:32:26;;;;;;;6.88;6.05;;;;;;;;;;5013507;28;20251;-86
2023/07/15 12:34:54;;;;;;;6.55;5.63;;;;;;;;;;5013960;28;20216;-88
2023/07/15 12:37:22;;;;;;;7.47;6.35;;;;;;;;;;5015326;28;20232;-87
2023/07/15 12:39:48;;;;;;;5.80;5.30;;;;;;;;;;5011749;28;20220;-87
2023/07/15 12:42:16;;;;;;;6.55;5.95;;;;;;;;;;5012455;28;20255;-87
2023/07/15 12:44:46;;;;;;;9.90;5.90;;;;;;;;;;5013116;28;20277;-87
2023/07/15 12:47:13;;;;;;;8.88;6.82;;;;;;;;;;5014952;28;20247;-87
2023/07/15 12:49:40;;;;;;;7.53;6.25;;;;;;;;;;5011323;28;20298;-86
2023/07/15 12:52:08;;;;;;;10.52;6.82;;;;;;;;;;5012109;28;20220;-88
2023/07/15 12:54:35;;;;;;;6.20;5.43;;;;;;;;;;5010982;28;20331;-87
2023/07/15 12:57:02;;;;;;;10.90;6.10;;;;;;;;;;5012233;28;20311;-86
2023/07/15 12:59:29;;;;;;;8.38;6.22;;;;;;;;;;5010618;28;20224;-86
2023/07/15 13:01:58;;;;;;;7.55;6.63;;;;;;;;;;5011432;28;20232;-86
2023/07/15 13:04:25;;;;;;;7.25;6.55;;;;;;;;;;5009763;28;20228;-86
2023/07/15 13:06:52;;;;;;;9.73;6.38;;;;;;;;;;5011489;28;20217;-87
2023/07/15 13:09:19;;;;;;;10.77;6.43;;;;;;;;;;5011239;28;20238;-87
2023/07/15 13:11:46;;;;;;;7.65;5.90;;;;;;;;;;5013316;28;20232;-87
2023/07/15 13:14:12;;;;;;;10.30;5.88;;;;;;;;;;5011223;28;20299;-87
2023/07/15 13:16:41;;;;;;;12.70;6.28;;;;;;;;;;5010318;28;20228;-88
2023/07/15 13:19:12;;;;;;;6.50;5.88;;;;;;;;;;5011639;28;20224;-87
2023/07/15 13:21:42;;;;;;;5.97;5.47;;;;;;;;;;5011339;28;20729;-87
2023/07/15 13:24:08;;;;;;;7.40;5.75;;;;;;;;;;5012039;28;20245;-85
2023/07/15 13:26:35;;;;;;;6.07;5.35;;;;;;;;;;5010567;28;20228;-87
2023/07/15 13:29:03;;;;;;;6.70;5.57;;;;;;;;;;5012130;28;20224;-86
2023/07/15 13:31:29;;;;;;;8.68;5.93;;;;;;;;;;5019264;28;20228;-85
2023/07/15 13:33:56;;;;;;;6.15;5.43;;;;;;;;;;5032319;28;20220;-87
2023/07/15 13:36:28;;;;;;;9.05;6.50;;;;;;;;;;5018931;28;20244;-85
2023/07/15 13:38:57;;;;;;;7.88;7.03;;;;;;;;;;5011614;28;20283;-87
2023/07/15 13:41:24;;;;;;;8.32;7.28;;;;;;;;;;5010596;28;20308;-87
2023/07/15 13:43:51;;;;;;;9.20;7.03;;;;;;;;;;5011266;28;20227;-87
2023/07/15 13:46:18;;;;;;;8.55;6.35;;;;;;;;;;5009281;28;20238;-85
2023/07/15 13:48:45;;;;;;;8.20;6.47;;;;;;;;;;5009070;28;20247;-86
2023/07/15 13:51:13;;;;;;;7.18;5.80;;;;;;;;;;5008914;28;20235;-88
2023/07/15 13:53:41;;;;;;;7.20;5.93;;;;;;;;;;5007512;28;20567;-86
2023/07/15 13:56:08;;;;;;;5.53;5.03;;;;;;;;;;4969843;28;20316;-87
2023/07/15 13:58:35;;;;;;;6.18;5.65;;;;;;;;;;4969169;28;20742;-87
2023/07/15 14:01:02;;;;;;;6.47;5.88;;;;;;;;;;4971013;28;20233;-86
2023/07/15 14:03:29;;;;;;;10.93;6.10;;;;;;;;;;4970318;28;20228;-87
2023/07/15 14:05:55;;;;;;;6.28;5.45;;;;;;;;;;4971140;28;20237;-88
2023/07/15 14:08:22;;;;;;;5.35;4.95;;;;;;;;;;4970345;28;20237;-86
2023/07/15 14:10:50;;;;;;;6.10;5.60;;;;;;;;;;4971832;28;20222;-87
2023/07/15 14:13:17;;;;;;;6.32;5.72;;;;;;;;;;4970465;28;20238;-86
2023/07/15 14:15:44;;;;;;;6.47;5.05;;;;;;;;;;4971091;28;20225;-86
2023/07/15 14:18:12;;;;;;;5.45;4.95;;;;;;;;;;4969864;28;20226;-87
2023/07/15 14:20:39;;;;;;;8.48;5.80;;;;;;;;;;4970514;28;20325;-86
2023/07/15 14:23:06;;;;;;;6.28;5.55;;;;;;;;;;4970173;28;20226;-86
2023/07/15 14:25:33;;;;;;;7.22;5.97;;;;;;;;;;4970593;28;20241;-87
2023/07/15 14:28:01;;;;;;;6.43;5.55;;;;;;;;;;4970243;28;20229;-87
2023/07/15 14:30:28;;;;;;;6.45;5.90;;;;;;;;;;4971458;28;20230;-87
2023/07/15 14:32:55;;;;;;;6.63;5.63;;;;;;;;;;4971327;28;20234;-88
2023/07/15 14:35:23;;;;;;;9.13;5.30;;;;;;;;;;4970609;28;20253;-88
2023/07/15 14:37:50;;;;;;;5.75;5.18;;;;;;;;;;4970983;28;20218;-88
2023/07/15 14:40:17;;;;;;;5.72;4.60;;;;;;;;;;4970322;28;20226;-86
2023/07/15 14:42:44;;;;;;;9.48;5.22;;;;;;;;;;4971257;28;20228;-87
2023/07/15 14:45:12;;;;;;;5.88;5.38;;;;;;;;;;4972834;28;20242;-88
2023/07/15 14:47:40;;;;;;;5.75;5.28;;;;;;;;;;4973939;28;20226;-86